This is the latest recevied weather packets stored in our database for station/object OH6LSL. If no packets are shown the sender has not sent any weather packets the latest 10 day(s).
| Time | Temp. | Humidity | Pressure | Rain* | Wind** | Luminosity | Snow |
|---|---|---|---|---|---|---|---|
| 1777300480 | 5° C | 45% | 1017 hPa | 0 mm | - | 42 W/m² | - |
| 1777298680 | 5° C | 44% | 1017 hPa | 0 mm | - | 486 W/m² | - |
| 1777297504 | 5° C | 48% | 1016.9 hPa | 0 mm | - | 507 W/m² | - |
| 1777296281 | 5° C | 44% | 1016.9 hPa | 0 mm | - | 151 W/m² | - |
| 1777294477 | 4.44° C | 49% | 1016.7 hPa | 0 mm | - | 48 W/m² | - |
| 1777289110 | 5° C | 49% | 1016.4 hPa | 0 mm | - | 663 W/m² | - |
| 1777286120 | 4.44° C | 48% | 1016.5 hPa | 0 mm | - | 676 W/m² | - |
| 1777284876 | 3.89° C | 52% | 1016.3 hPa | 0 mm | - | 672 W/m² | - |
| 1777278890 | 2.78° C | 58% | 1015.7 hPa | 0 mm | - | 223 W/m² | - |
| 1777275880 | 2.78° C | 56% | 1015.4 hPa | 0 mm | - | 90 W/m² | - |
| 1777272882 | 2.78° C | 55% | 1014.9 hPa | 0 mm | - | 51 W/m² | - |
| 1777271077 | 2.78° C | 58% | 1014.6 hPa | 0 mm | - | 46 W/m² | - |
| 1777270487 | 2.78° C | 56% | 1014.4 hPa | 0 mm | - | 44 W/m² | - |
| 1777269890 | 2.78° C | 58% | 1014.4 hPa | 0 mm | - | 44 W/m² | - |
| 1777266887 | 2.22° C | 56% | 1014.1 hPa | 0 mm | - | 39 W/m² | - |
| 1777266306 | 2.22° C | 56% | 1014.1 hPa | 0 mm | - | 37 W/m² | - |
| 1777263883 | 2.22° C | 56% | 1013.7 hPa | 0 mm | - | 35 W/m² | - |
| 1777263303 | 2.22° C | 57% | 1013.6 hPa | 0 mm | - | 33 W/m² | - |
| 1777262699 | 2.22° C | 58% | 1013.6 hPa | 0 mm | - | 32 W/m² | - |
| 1777260906 | 2.22° C | 59% | 1013.4 hPa | 0 mm | - | 28 W/m² | - |
| 1777259073 | 2.22° C | 56% | 1013.2 hPa | 0 mm | - | 16 W/m² | - |
| 1777253679 | 2.22° C | 57% | 1012.7 hPa | 0 mm | - | 0 W/m² | - |
| 1777250696 | 2.22° C | 58% | 1012.1 hPa | 0 mm | - | 0 W/m² | - |
| 1777245875 | 1.67° C | 51% | 1011.5 hPa | 0 mm | - | 0 W/m² | - |
| 1777245314 | 1.11° C | 52% | 1011.4 hPa | 0 mm | - | 0 W/m² | - |
* Rain latest hour (hover to see other rain measurements)
** Current wind speed in m/s (hover to see current wind gust speed)